Capitol Logistics 230


KRFD
Chicago/Rockford International Airport
Rockford, Illinois, US
KPHX
Phoenix Sky Harbor International Airport
Phoenix, Arizona, US

Route Details

Aircraft Information
Primary: Boeing 767-300BDSF
Backup: Not Available
Route Data
Distance: 1204nm
Sched. Duration: 3h 14m
Avg. Duration: 3h 27m (+13m)
Times Flown: 6
Recm'd Route: DBQ J144 DSM OVR GLD ALS GUP EAGUL6
Planned Altitude: 34,000ft
Origin Wx: KRFD 151754Z 18007KT 10SM FEW024 SCT060 OVC160 26/20 A2999 RMK AO2 SLP149 T02610200 10267 20228 58007
Dest. Wx: KPHX 151751Z 15008KT 10SM FEW180 SCT250 38/12 A2986 RMK AO2 SLP088 T03830117 10383 20317 58001
Notes:

Financial History
Total Freight: 384,587lbs
Average Load: 64,098lbs/flt
Fuel Used: 193,514lbs
Avg. Fuel Used: 32,252lbs/flt
Fuel Expense: $139,146
Avg. Fuel Expense: $23,191
Avg. Fuel Cost: $0.72/lbs
Total Gross Income: $541,847
Pilot Pay: $1,214
Total Expenses: $58,831
Total Revenue: $339,625
Average Revenue: $90,307.84